createdAt,value
2022-12-06T00:02:26.675Z,101106.38
2022-12-06T00:05:10.400Z,101097.31
2022-12-06T00:07:54.668Z,101103.59
2022-12-06T00:10:40.189Z,101057.72
2022-12-06T00:13:23.947Z,101095.56
2022-12-06T00:16:09.281Z,101093.94
2022-12-06T00:18:53.182Z,101084.38
2022-12-06T00:21:38.297Z,101088.28
2022-12-06T00:24:23.581Z,101088.97
2022-12-06T00:27:08.666Z,101098.28
2022-12-06T00:29:52.430Z,101085.41
2022-12-06T00:32:36.140Z,101087.94
2022-12-06T00:35:19.807Z,101081.41
2022-12-06T00:38:03.589Z,101087.53
2022-12-06T00:40:47.219Z,101074.28
2022-12-06T00:43:32.920Z,101076.22
2022-12-06T00:46:19.096Z,101074.69
2022-12-06T00:49:05.023Z,101063.75
2022-12-06T00:51:48.709Z,101061.53
2022-12-06T00:54:32.501Z,101018.22
2022-12-06T00:57:16.243Z,101050.88
2022-12-06T01:00:01.664Z,101031.03
2022-12-06T01:02:46.486Z,101047.41
2022-12-06T01:05:30.713Z,101050.56
2022-12-06T01:08:14.889Z,101045.09
2022-12-06T01:10:59.077Z,101020.19
2022-12-06T01:13:43.692Z,101004.22
2022-12-06T01:16:31.733Z,101043.06
2022-12-06T01:19:15.749Z,101047.34
2022-12-06T01:21:59.724Z,101049.81
2022-12-06T01:24:43.620Z,101025.00
2022-12-06T01:27:27.920Z,100997.00
2022-12-06T01:30:12.539Z,100993.38
2022-12-06T01:32:58.150Z,101033.16
2022-12-06T01:35:43.125Z,101025.69
2022-12-06T01:38:26.864Z,101008.25
2022-12-06T01:41:10.719Z,101017.16
2022-12-06T01:43:55.664Z,100976.88
2022-12-06T01:46:43.482Z,100979.22
2022-12-06T01:49:33.887Z,101006.13
2022-12-06T01:52:19.397Z,101006.31
2022-12-06T01:55:08.095Z,100986.97
2022-12-06T01:57:55.013Z,101010.03
2022-12-06T02:00:38.827Z,101007.25
2022-12-06T02:03:26.192Z,101010.41
2022-12-06T02:06:11.890Z,100995.63
2022-12-06T02:08:57.387Z,101021.63
2022-12-06T02:11:41.644Z,101008.53
2022-12-06T02:14:29.710Z,100974.25
2022-12-06T02:17:35.217Z,101007.63
2022-12-06T02:20:28.781Z,101001.53
2022-12-06T02:23:40.401Z,100985.09
2022-12-06T02:26:33.731Z,100983.47
2022-12-06T02:29:56.074Z,100987.09
2022-12-06T02:32:54.894Z,100983.22
2022-12-06T02:35:43.791Z,100986.97
2022-12-06T02:38:35.324Z,100979.94
2022-12-06T02:41:25.162Z,100978.34
2022-12-06T02:44:14.149Z,100992.31
2022-12-06T02:47:02.431Z,100947.66
2022-12-06T02:49:50.442Z,100986.09
2022-12-06T02:52:38.178Z,100985.28
2022-12-06T02:55:24.653Z,100986.47
2022-12-06T02:58:08.414Z,100975.44
2022-12-06T03:00:56.169Z,100983.00
2022-12-06T03:03:58.872Z,100973.41
2022-12-06T03:07:08.635Z,100984.88
2022-12-06T03:10:04.602Z,100982.38
2022-12-06T03:12:56.676Z,100974.78
2022-12-06T03:15:50.003Z,100976.47
2022-12-06T03:18:38.742Z,100984.28
2022-12-06T03:21:28.231Z,100964.75
2022-12-06T03:24:16.383Z,100987.72
2022-12-06T03:27:05.743Z,100982.66
2022-12-06T03:29:53.330Z,100988.13
2022-12-06T03:32:39.932Z,100986.59
2022-12-06T03:35:28.007Z,100971.44
2022-12-06T03:38:20.892Z,100984.28
2022-12-06T03:41:08.260Z,100977.44
2022-12-06T03:43:52.317Z,100980.72
2022-12-06T03:46:39.938Z,100960.13
2022-12-06T03:49:29.438Z,100971.03
2022-12-06T03:52:14.552Z,100973.59
2022-12-06T03:54:58.867Z,100932.81
2022-12-06T03:57:45.207Z,100939.06
2022-12-06T04:00:29.428Z,100974.53
2022-12-06T04:03:13.889Z,100971.81
2022-12-06T04:05:57.854Z,100927.38
2022-12-06T04:08:42.013Z,100970.25
2022-12-06T04:11:25.947Z,100924.47
2022-12-06T04:14:11.791Z,100967.97
2022-12-06T04:17:13.289Z,100935.34
2022-12-06T04:19:57.405Z,100943.72
2022-12-06T04:22:58.896Z,100972.00
2022-12-06T04:25:42.874Z,100979.09
2022-12-06T04:28:44.497Z,100988.50
2022-12-06T04:31:47.253Z,100947.53
2022-12-06T04:34:48.735Z,100949.81
2022-12-06T04:37:50.262Z,100977.59
2022-12-06T04:40:35.322Z,100993.72
2022-12-06T04:43:36.883Z,100950.72
2022-12-06T04:46:20.963Z,100952.66
2022-12-06T04:49:06.584Z,100989.63
2022-12-06T04:51:52.352Z,100985.19
2022-12-06T04:54:36.746Z,100941.31
2022-12-06T04:57:20.676Z,100968.69
2022-12-06T05:00:07.877Z,100988.19
2022-12-06T05:02:51.923Z,100977.22
2022-12-06T05:05:37.416Z,100987.47
2022-12-06T05:08:24.578Z,100943.22
2022-12-06T05:11:09.469Z,100982.91
2022-12-06T05:13:53.452Z,100932.84
2022-12-06T05:16:37.696Z,100982.03
2022-12-06T05:19:21.654Z,100936.84
2022-12-06T05:22:07.089Z,100977.81
2022-12-06T05:24:51.956Z,100944.28
2022-12-06T05:27:36.475Z,100980.84
2022-12-06T05:30:20.458Z,100963.03
2022-12-06T05:33:04.237Z,100959.38
2022-12-06T05:35:47.973Z,100961.78
2022-12-06T05:38:34.137Z,100970.50
2022-12-06T05:41:18.229Z,100968.59
2022-12-06T05:44:01.953Z,100977.78
2022-12-06T05:46:45.602Z,100972.06
2022-12-06T05:49:29.439Z,100961.91
2022-12-06T05:52:13.159Z,100965.00
2022-12-06T05:54:58.420Z,100974.03
2022-12-06T05:57:46.985Z,100935.69
2022-12-06T06:00:31.504Z,100936.34
2022-12-06T06:03:15.560Z,100981.22
2022-12-06T06:06:01.622Z,100977.69
2022-12-06T06:08:45.284Z,100976.91
2022-12-06T06:11:30.375Z,100965.59
2022-12-06T06:14:14.990Z,100981.75
2022-12-06T06:16:58.765Z,100967.19
2022-12-06T06:19:42.906Z,100982.97
2022-12-06T06:22:27.877Z,100976.00
2022-12-06T06:25:11.743Z,100976.91
2022-12-06T06:27:57.879Z,100979.28
2022-12-06T06:30:41.687Z,100973.69
2022-12-06T06:33:25.396Z,100975.94
2022-12-06T06:36:10.117Z,100948.66
2022-12-06T06:38:53.873Z,100970.69
2022-12-06T06:41:37.513Z,100978.78
2022-12-06T06:44:22.675Z,100975.38
2022-12-06T06:47:06.501Z,100979.38
2022-12-06T06:49:50.530Z,100965.63
2022-12-06T06:52:34.544Z,100972.25
2022-12-06T06:55:20.291Z,100971.56
2022-12-06T06:58:04.152Z,100970.78
2022-12-06T07:00:53.826Z,100976.34
2022-12-06T07:03:37.720Z,100975.75
2022-12-06T07:06:21.911Z,100928.81
2022-12-06T07:09:05.893Z,100938.16
2022-12-06T07:11:49.731Z,100969.38
2022-12-06T07:14:33.740Z,100974.19
2022-12-06T07:17:19.160Z,100973.00
2022-12-06T07:20:03.300Z,100932.25
2022-12-06T07:22:47.654Z,100969.16
2022-12-06T07:25:32.064Z,100966.63
2022-12-06T07:28:15.745Z,100965.25
2022-12-06T07:30:59.633Z,100962.63
2022-12-06T07:33:45.720Z,100961.59
2022-12-06T07:36:32.191Z,100962.75
2022-12-06T07:39:15.989Z,100924.94
2022-12-06T07:42:17.137Z,100965.06
2022-12-06T07:45:09.554Z,100956.47
2022-12-06T07:47:53.317Z,100955.22
2022-12-06T07:50:38.686Z,100925.63
2022-12-06T07:53:22.674Z,100929.56
2022-12-06T07:56:10.458Z,100956.06
2022-12-06T07:58:54.741Z,100929.69
2022-12-06T08:01:39.442Z,100960.88
2022-12-06T08:04:23.722Z,100912.50
2022-12-06T08:07:09.210Z,100959.28
2022-12-06T08:09:54.236Z,100943.75
2022-12-06T08:12:39.332Z,100933.91
2022-12-06T08:15:23.305Z,100898.34
2022-12-06T08:18:07.487Z,100929.06
2022-12-06T08:20:52.432Z,100909.53
2022-12-06T08:23:38.222Z,100890.56
2022-12-06T08:26:22.835Z,100887.22
2022-12-06T08:29:06.825Z,100933.91
2022-12-06T08:31:50.938Z,100917.41
2022-12-06T08:34:35.354Z,100902.16
2022-12-06T08:37:19.489Z,100922.09
2022-12-06T08:40:05.506Z,100891.47
2022-12-06T08:42:49.427Z,100887.72
2022-12-06T08:45:34.317Z,100920.72
2022-12-06T08:48:18.125Z,100917.63
2022-12-06T08:51:03.288Z,100916.63
2022-12-06T08:53:47.034Z,100902.09
2022-12-06T08:56:32.160Z,100907.69
2022-12-06T08:59:15.998Z,100892.56
2022-12-06T09:01:59.855Z,100897.59
2022-12-06T09:04:43.585Z,100885.53
2022-12-06T09:07:27.664Z,100885.69
2022-12-06T09:10:12.418Z,100890.44
2022-12-06T09:12:58.029Z,100888.13
2022-12-06T09:15:41.749Z,100882.25
2022-12-06T09:18:25.692Z,100882.50
2022-12-06T09:21:11.016Z,100876.16
2022-12-06T09:23:56.709Z,100868.75
2022-12-06T09:26:41.154Z,100865.28
2022-12-06T09:29:26.410Z,100869.16
2022-12-06T09:32:10.356Z,100851.94
2022-12-06T09:34:54.133Z,100849.31
2022-12-06T09:37:38.193Z,100845.34
2022-12-06T09:40:32.828Z,100826.69
2022-12-06T09:43:32.824Z,100806.44
2022-12-06T09:46:32.819Z,100813.38
2022-12-06T09:49:29.377Z,100841.38
2022-12-06T09:52:47.497Z,100837.09
2022-12-06T09:55:45.255Z,100836.91
2022-12-06T09:58:44.393Z,100841.94
2022-12-06T10:01:44.750Z,100822.78
2022-12-06T10:04:47.829Z,100830.22
2022-12-06T10:07:39.111Z,100822.84
2022-12-06T10:10:33.148Z,100813.72
2022-12-06T10:13:28.206Z,100807.16
2022-12-06T10:16:22.270Z,100804.78
2022-12-06T10:19:17.541Z,100771.03
2022-12-06T10:22:13.987Z,100796.22
2022-12-06T10:25:04.173Z,100774.78
2022-12-06T10:27:55.281Z,100757.38
2022-12-06T10:30:51.510Z,100780.38
2022-12-06T10:33:47.521Z,100783.13
2022-12-06T10:36:43.609Z,100775.19
2022-12-06T10:39:32.839Z,100773.59
2022-12-06T10:42:25.377Z,100769.16
2022-12-06T10:45:38.338Z,100765.59
2022-12-06T10:48:33.902Z,100766.69
2022-12-06T10:51:23.228Z,100752.97
2022-12-06T10:54:18.050Z,100760.72
2022-12-06T10:57:08.515Z,100752.97
2022-12-06T11:00:03.235Z,100757.78
2022-12-06T11:02:56.470Z,100713.59
2022-12-06T11:05:44.682Z,100721.31
2022-12-06T11:08:36.480Z,100737.41
2022-12-06T11:11:27.905Z,100741.19
2022-12-06T11:14:23.671Z,100734.94
2022-12-06T11:17:17.176Z,100737.75
2022-12-06T11:20:04.926Z,100745.88
2022-12-06T11:22:59.597Z,100724.94
2022-12-06T11:25:54.436Z,100721.75
2022-12-06T11:28:42.325Z,100732.09
2022-12-06T11:31:28.805Z,100720.06
2022-12-06T11:34:17.473Z,100728.91
2022-12-06T11:37:03.631Z,100719.03
2022-12-06T11:39:49.196Z,100731.50
2022-12-06T11:42:32.855Z,100700.66
2022-12-06T11:45:23.270Z,100719.28
2022-12-06T11:48:16.352Z,100710.44
2022-12-06T11:51:00.110Z,100709.22
2022-12-06T11:53:54.861Z,100698.47
2022-12-06T11:56:40.189Z,100706.78
2022-12-06T11:59:26.066Z,100706.00
2022-12-06T12:02:32.647Z,100713.38
2022-12-06T12:05:22.025Z,100703.75
2022-12-06T12:08:08.329Z,100702.00
2022-12-06T12:11:00.718Z,100669.31
2022-12-06T12:13:52.146Z,100709.16
2022-12-06T12:16:38.320Z,100710.44
2022-12-06T12:19:32.339Z,100695.00
2022-12-06T12:22:24.217Z,100696.47
2022-12-06T12:25:25.241Z,100697.59
2022-12-06T12:28:26.639Z,100698.38
2022-12-06T12:31:17.570Z,100686.66
2022-12-06T12:34:20.468Z,100696.63
2022-12-06T12:37:20.786Z,100680.44
2022-12-06T12:40:10.559Z,100687.19
2022-12-06T12:43:00.710Z,100691.00
2022-12-06T12:46:04.339Z,100651.06
2022-12-06T12:48:50.172Z,100678.38
2022-12-06T12:51:36.007Z,100656.19
2022-12-06T12:54:29.633Z,100678.38
2022-12-06T12:57:15.049Z,100677.50
2022-12-06T12:59:59.233Z,100678.22
2022-12-06T13:02:45.019Z,100659.75
2022-12-06T13:05:33.990Z,100644.19
2022-12-06T13:08:25.179Z,100672.84
2022-12-06T13:11:11.002Z,100669.03
2022-12-06T13:13:56.681Z,100668.63
2022-12-06T13:16:42.440Z,100666.66
2022-12-06T13:19:32.364Z,100661.72
2022-12-06T13:22:21.260Z,100660.63
2022-12-06T13:25:08.096Z,100607.28
2022-12-06T13:27:58.624Z,100659.22
2022-12-06T13:30:49.298Z,100641.31
2022-12-06T13:33:36.893Z,100650.34
2022-12-06T13:36:21.813Z,100649.22
2022-12-06T13:39:39.937Z,100655.66
2022-12-06T13:42:41.352Z,100613.50
2022-12-06T13:45:42.333Z,100629.34
2022-12-06T13:48:40.535Z,100655.19
2022-12-06T13:51:50.798Z,100655.50
2022-12-06T13:54:35.202Z,100618.75
2022-12-06T13:57:30.193Z,100657.19
2022-12-06T14:00:47.647Z,100659.63
2022-12-06T14:03:42.560Z,100665.28
2022-12-06T14:06:45.483Z,100668.28
2022-12-06T14:09:36.715Z,100664.50
2022-12-06T14:12:23.097Z,100607.22
2022-12-06T14:15:08.411Z,100618.44
2022-12-06T14:18:03.028Z,100672.69
2022-12-06T14:20:52.659Z,100657.00
2022-12-06T14:23:47.522Z,100660.09
2022-12-06T14:26:33.891Z,100634.88
2022-12-06T14:29:23.086Z,100655.41
2022-12-06T14:32:07.524Z,100652.13
2022-12-06T14:34:51.235Z,100648.66
2022-12-06T14:37:36.402Z,100648.94
2022-12-06T14:43:31.338Z,100621.06
2022-12-06T14:46:17.427Z,100651.41
2022-12-06T14:49:19.384Z,100629.53
2022-12-06T14:52:03.132Z,100652.91
2022-12-06T14:54:48.716Z,100651.13
2022-12-06T14:57:38.972Z,100645.28
2022-12-06T15:00:27.841Z,100641.97
2022-12-06T15:03:29.075Z,100648.19
2022-12-06T15:06:17.607Z,100644.44
2022-12-06T15:09:12.795Z,100644.00
2022-12-06T15:12:49.778Z,100644.59
2022-12-06T15:15:39.653Z,100626.59
2022-12-06T15:18:25.103Z,100619.44
2022-12-06T15:21:13.446Z,100633.47
2022-12-06T15:23:57.708Z,100631.09
2022-12-06T15:26:41.520Z,100637.38
2022-12-06T15:29:26.652Z,100634.09
2022-12-06T15:32:14.187Z,100618.22
2022-12-06T15:34:57.961Z,100624.19
2022-12-06T15:37:47.313Z,100615.81
2022-12-06T15:40:32.873Z,100630.72
2022-12-06T15:43:25.993Z,100621.59
2022-12-06T15:46:20.070Z,100627.75
2022-12-06T15:49:04.165Z,100584.59
2022-12-06T15:51:49.110Z,100582.59
2022-12-06T15:54:33.547Z,100551.94
2022-12-06T15:57:17.652Z,100594.09
2022-12-06T16:00:01.629Z,100539.00
2022-12-06T16:02:48.338Z,100622.06
2022-12-06T16:05:32.434Z,100607.63
2022-12-06T16:08:16.608Z,100577.88
2022-12-06T16:11:11.816Z,100574.84
2022-12-06T16:13:56.642Z,100625.91
2022-12-06T16:16:43.441Z,100580.53
2022-12-06T16:19:49.835Z,100626.53
2022-12-06T16:22:51.249Z,100577.47
2022-12-06T16:25:35.123Z,100610.84
2022-12-06T16:28:19.057Z,100576.31
2022-12-06T16:31:03.305Z,100601.69
2022-12-06T16:33:47.367Z,100612.56
2022-12-06T16:36:33.423Z,100594.56
2022-12-06T16:39:17.453Z,100594.19
2022-12-06T16:42:01.507Z,100564.78
2022-12-06T16:44:52.064Z,100595.91
2022-12-06T16:47:36.066Z,100592.91
2022-12-06T16:50:24.978Z,100596.38
2022-12-06T16:53:11.716Z,100597.97
2022-12-06T16:55:55.654Z,100607.47
2022-12-06T16:58:39.699Z,100554.47
2022-12-06T17:01:26.075Z,100554.63
2022-12-06T17:04:11.228Z,100594.75
2022-12-06T17:06:55.407Z,100554.13
2022-12-06T17:09:41.020Z,100553.59
2022-12-06T17:12:24.948Z,100555.59
2022-12-06T17:15:11.426Z,100591.34
2022-12-06T17:17:55.392Z,100596.41
2022-12-06T17:20:40.259Z,100590.13
2022-12-06T17:23:24.280Z,100556.97
2022-12-06T17:26:09.658Z,100594.75
2022-12-06T17:28:53.730Z,100566.19
2022-12-06T17:31:38.957Z,100574.50
2022-12-06T17:34:25.956Z,100556.34
2022-12-06T17:37:10.166Z,100582.56
2022-12-06T17:39:54.131Z,100548.00
2022-12-06T17:42:56.906Z,100576.91
2022-12-06T17:45:40.885Z,100535.50
2022-12-06T17:48:24.859Z,100549.84
2022-12-06T17:51:08.910Z,100539.34
2022-12-06T17:53:53.524Z,100570.53
2022-12-06T17:56:39.267Z,100571.91
2022-12-06T17:59:27.619Z,100492.97
2022-12-06T18:02:15.868Z,100524.66
2022-12-06T18:05:01.267Z,100573.03
2022-12-06T18:07:46.843Z,100560.22
2022-12-06T18:10:30.832Z,100565.75
2022-12-06T18:13:14.811Z,100555.50
2022-12-06T18:16:00.277Z,100524.94
2022-12-06T18:18:45.874Z,100552.84
2022-12-06T18:21:29.933Z,100511.38
2022-12-06T18:24:25.643Z,100551.47
2022-12-06T18:27:11.839Z,100553.47
2022-12-06T18:29:57.048Z,100512.50
2022-12-06T18:32:42.461Z,100513.09
2022-12-06T18:35:26.461Z,100536.38
2022-12-06T18:38:10.417Z,100537.78
2022-12-06T18:40:54.670Z,100530.22
2022-12-06T18:43:38.955Z,100490.31
2022-12-06T18:46:25.085Z,100529.34
2022-12-06T18:49:12.145Z,100533.78
2022-12-06T18:51:56.144Z,100498.03
2022-12-06T18:54:40.206Z,100537.44
2022-12-06T18:57:27.594Z,100525.19
2022-12-06T19:00:17.161Z,100525.38
2022-12-06T19:03:01.879Z,100484.13
2022-12-06T19:06:02.417Z,100488.66
2022-12-06T19:08:47.026Z,100528.28
2022-12-06T19:11:31.360Z,100491.09
2022-12-06T19:14:16.324Z,100513.50
2022-12-06T19:17:00.435Z,100520.19
2022-12-06T19:19:44.703Z,100433.13
2022-12-06T19:22:30.261Z,100510.28
2022-12-06T19:25:14.277Z,100507.63
2022-12-06T19:27:58.264Z,100504.63
2022-12-06T19:30:42.370Z,100506.81
2022-12-06T19:33:26.520Z,100463.94
2022-12-06T19:36:14.174Z,100494.50
2022-12-06T19:39:01.910Z,100459.81
2022-12-06T19:42:04.026Z,100448.38
2022-12-06T19:44:47.842Z,100457.47
2022-12-06T19:47:31.792Z,100480.06
2022-12-06T19:50:15.663Z,100467.41
2022-12-06T19:52:59.680Z,100467.53
2022-12-06T19:55:48.090Z,100467.19
2022-12-06T19:58:32.651Z,100482.00
2022-12-06T20:01:19.554Z,100450.38
2022-12-06T20:04:03.317Z,100470.78
2022-12-06T20:06:47.248Z,100467.03
2022-12-06T20:09:32.096Z,100456.38
2022-12-06T20:12:17.376Z,100455.63
2022-12-06T20:15:01.161Z,100469.69
2022-12-06T20:17:46.226Z,100457.69
2022-12-06T20:20:30.391Z,100453.25
2022-12-06T20:23:14.131Z,100455.38
2022-12-06T20:25:58.901Z,100438.69
2022-12-06T20:28:44.403Z,100437.81
2022-12-06T20:31:29.901Z,100447.28
2022-12-06T20:34:15.562Z,100447.72
2022-12-06T20:36:59.369Z,100444.81
2022-12-06T20:39:43.322Z,100442.41
2022-12-06T20:42:27.060Z,100441.31
2022-12-06T20:45:12.449Z,100448.28
2022-12-06T20:47:56.224Z,100447.00
2022-12-06T20:50:40.260Z,100435.34
2022-12-06T20:53:23.998Z,100437.06
2022-12-06T20:56:09.807Z,100444.53
2022-12-06T20:58:55.236Z,100449.38
2022-12-06T21:01:42.470Z,100431.16
2022-12-06T21:04:27.173Z,100440.44
2022-12-06T21:07:10.919Z,100418.22
2022-12-06T21:09:54.559Z,100433.00
2022-12-06T21:12:38.253Z,100415.00
2022-12-06T21:15:22.036Z,100425.13
2022-12-06T21:18:07.245Z,100429.41
2022-12-06T21:20:50.973Z,100438.50
2022-12-06T21:23:34.833Z,100425.56
2022-12-06T21:26:18.633Z,100424.41
2022-12-06T21:29:02.455Z,100431.28
2022-12-06T21:31:46.776Z,100438.28
2022-12-06T21:34:32.617Z,100433.56
2022-12-06T21:37:16.380Z,100425.13
2022-12-06T21:40:00.182Z,100420.84
2022-12-06T21:42:44.153Z,100428.13
2022-12-06T21:45:27.955Z,100429.44
2022-12-06T21:48:11.747Z,100436.28
2022-12-06T21:51:01.748Z,100411.25
2022-12-06T21:53:45.703Z,100422.13
2022-12-06T21:56:31.505Z,100393.59
2022-12-06T21:59:15.246Z,100414.03
2022-12-06T22:01:59.153Z,100428.06
2022-12-06T22:04:42.916Z,100410.59
2022-12-06T22:07:28.119Z,100416.88
2022-12-06T22:10:12.664Z,100405.13
2022-12-06T22:12:56.370Z,100407.00
2022-12-06T22:15:40.041Z,100398.91
2022-12-06T22:18:23.778Z,100390.59
2022-12-06T22:21:11.339Z,100388.56
2022-12-06T22:23:57.487Z,100385.13
2022-12-06T22:26:41.172Z,100393.41
2022-12-06T22:29:24.884Z,100384.31
2022-12-06T22:32:08.704Z,100385.94
2022-12-06T22:34:52.477Z,100386.22
2022-12-06T22:37:36.254Z,100390.75
2022-12-06T22:40:21.398Z,100388.03
2022-12-06T22:43:08.078Z,100387.03
2022-12-06T22:45:51.893Z,100394.56
2022-12-06T22:48:36.002Z,100396.28
2022-12-06T22:51:22.243Z,100383.16
2022-12-06T22:54:08.942Z,100368.63
2022-12-06T22:56:54.385Z,100374.84
2022-12-06T22:59:38.348Z,100381.47
2022-12-06T23:02:22.311Z,100370.91
2022-12-06T23:05:06.964Z,100367.78
2022-12-06T23:07:50.955Z,100369.19
2022-12-06T23:10:35.021Z,100343.22
2022-12-06T23:13:20.334Z,100318.28
2022-12-06T23:16:06.318Z,100356.16
2022-12-06T23:18:50.958Z,100347.16
2022-12-06T23:21:37.114Z,100354.34
2022-12-06T23:24:21.238Z,100313.00
2022-12-06T23:27:05.268Z,100347.25
2022-12-06T23:29:50.654Z,100296.75
2022-12-06T23:32:34.598Z,100349.88
2022-12-06T23:35:18.524Z,100343.53
2022-12-06T23:38:02.581Z,100314.28
2022-12-06T23:40:46.278Z,100329.09
2022-12-06T23:43:30.126Z,100352.03
2022-12-06T23:46:21.995Z,100341.22
2022-12-06T23:49:07.928Z,100336.53
2022-12-06T23:51:52.686Z,100290.31
2022-12-06T23:54:36.866Z,100301.84
2022-12-06T23:57:20.874Z,100342.88
